sensor_id;sensor_type;location;lat;lon;timestamp;pressure;altitude;pressure_sealevel;temperature;humidity
48390;BME280;34643;47.964;7.982;2023-03-31T00:03:27;96218.22;;;16.79;62.59
48390;BME280;34643;47.964;7.982;2023-03-31T00:08:28;96197.59;;;16.76;62.78
48390;BME280;34643;47.964;7.982;2023-03-31T00:13:29;96194.06;;;16.77;62.74
48390;BME280;34643;47.964;7.982;2023-03-31T00:18:29;96194.19;;;16.76;62.75
48390;BME280;34643;47.964;7.982;2023-03-31T00:23:30;96177.69;;;16.75;62.49
48390;BME280;34643;47.964;7.982;2023-03-31T00:28:30;96185.66;;;16.73;62.48
48390;BME280;34643;47.964;7.982;2023-03-31T00:33:30;96185.50;;;16.75;62.76
48390;BME280;34643;47.964;7.982;2023-03-31T00:38:31;96199.50;;;16.74;62.71
48390;BME280;34643;47.964;7.982;2023-03-31T00:43:35;96202.94;;;16.75;62.62
48390;BME280;34643;47.964;7.982;2023-03-31T00:48:36;96215.16;;;16.74;62.64
48390;BME280;34643;47.964;7.982;2023-03-31T00:53:37;96217.75;;;16.74;62.52
48390;BME280;34643;47.964;7.982;2023-03-31T00:58:37;96221.06;;;16.76;62.47
48390;BME280;34643;47.964;7.982;2023-03-31T01:03:42;96222.16;;;16.73;62.50
48390;BME280;34643;47.964;7.982;2023-03-31T01:08:46;96209.22;;;16.72;62.70
48390;BME280;34643;47.964;7.982;2023-03-31T01:13:47;96171.78;;;16.73;62.44
48390;BME280;34643;47.964;7.982;2023-03-31T01:18:50;96137.09;;;16.72;62.54
48390;BME280;34643;47.964;7.982;2023-03-31T01:34:39;96103.56;;;16.68;62.38
48390;BME280;34643;47.964;7.982;2023-03-31T01:45:13;96072.88;;;16.71;62.25
48390;BME280;34643;47.964;7.982;2023-03-31T01:55:19;96025.28;;;16.69;62.20
48390;BME280;34643;47.964;7.982;2023-03-31T02:00:27;96019.13;;;16.70;62.26
48390;BME280;34643;47.964;7.982;2023-03-31T02:05:34;96023.66;;;16.68;62.45
48390;BME280;34643;47.964;7.982;2023-03-31T02:10:36;96012.38;;;16.68;62.22
48390;BME280;34643;47.964;7.982;2023-03-31T02:15:38;95982.91;;;16.67;62.34
48390;BME280;34643;47.964;7.982;2023-03-31T02:20:40;95978.50;;;16.68;62.31
48390;BME280;34643;47.964;7.982;2023-03-31T02:25:49;95960.25;;;16.68;62.40
48390;BME280;34643;47.964;7.982;2023-03-31T02:31:05;95945.59;;;16.67;62.43
48390;BME280;34643;47.964;7.982;2023-03-31T02:36:06;95935.19;;;16.67;62.24
48390;BME280;34643;47.964;7.982;2023-03-31T02:41:07;95915.41;;;16.64;62.09
48390;BME280;34643;47.964;7.982;2023-03-31T02:46:09;95892.81;;;16.65;62.20
48390;BME280;34643;47.964;7.982;2023-03-31T03:06:30;95816.41;;;16.64;62.23
48390;BME280;34643;47.964;7.982;2023-03-31T03:11:54;95797.47;;;16.62;62.27
48390;BME280;34643;47.964;7.982;2023-03-31T03:17:09;95777.19;;;16.66;62.39
48390;BME280;34643;47.964;7.982;2023-03-31T03:22:11;95763.47;;;16.64;62.42
48390;BME280;34643;47.964;7.982;2023-03-31T03:27:11;95731.41;;;16.63;62.49
48390;BME280;34643;47.964;7.982;2023-03-31T03:32:11;95717.38;;;16.64;62.26
48390;BME280;34643;47.964;7.982;2023-03-31T03:37:12;95693.00;;;16.65;62.25
48390;BME280;34643;47.964;7.982;2023-03-31T03:42:12;95669.28;;;16.68;62.28
48390;BME280;34643;47.964;7.982;2023-03-31T03:47:12;95655.81;;;16.73;62.34
48390;BME280;34643;47.964;7.982;2023-03-31T03:52:13;95644.47;;;16.74;62.36
48390;BME280;34643;47.964;7.982;2023-03-31T03:57:13;95640.59;;;16.78;62.39
48390;BME280;34643;47.964;7.982;2023-03-31T04:02:14;95615.53;;;16.77;62.46
48390;BME280;34643;47.964;7.982;2023-03-31T04:07:14;95641.41;;;16.79;62.81
48390;BME280;34643;47.964;7.982;2023-03-31T04:12:15;95585.75;;;16.80;62.68
48390;BME280;34643;47.964;7.982;2023-03-31T04:17:15;95579.41;;;16.82;62.87
48390;BME280;34643;47.964;7.982;2023-03-31T04:22:15;95595.34;;;16.89;62.75
48390;BME280;34643;47.964;7.982;2023-03-31T04:27:19;95625.97;;;16.97;63.20
48390;BME280;34643;47.964;7.982;2023-03-31T04:32:20;95620.31;;;17.11;63.28
48390;BME280;34643;47.964;7.982;2023-03-31T04:37:20;95608.78;;;17.04;63.51
48390;BME280;34643;47.964;7.982;2023-03-31T04:42:21;95612.94;;;16.97;63.60
48390;BME280;34643;47.964;7.982;2023-03-31T04:47:21;95609.63;;;16.95;63.37
48390;BME280;34643;47.964;7.982;2023-03-31T04:52:21;95604.69;;;16.91;63.48
48390;BME280;34643;47.964;7.982;2023-03-31T04:57:22;95602.91;;;16.92;63.36
48390;BME280;34643;47.964;7.982;2023-03-31T05:02:22;95601.41;;;16.89;63.08
48390;BME280;34643;47.964;7.982;2023-03-31T05:07:22;95614.44;;;16.89;63.25
48390;BME280;34643;47.964;7.982;2023-03-31T05:12:23;95619.78;;;16.88;62.91
48390;BME280;34643;47.964;7.982;2023-03-31T05:17:23;95619.94;;;16.86;62.96
48390;BME280;34643;47.964;7.982;2023-03-31T05:22:24;95609.78;;;16.83;63.01
48390;BME280;34643;47.964;7.982;2023-03-31T05:27:24;95593.28;;;16.83;62.93
48390;BME280;34643;47.964;7.982;2023-03-31T05:32:24;95601.00;;;16.84;62.71
48390;BME280;34643;47.964;7.982;2023-03-31T05:37:25;95617.84;;;16.80;62.87
48390;BME280;34643;47.964;7.982;2023-03-31T05:42:26;95557.22;;;16.78;62.61
48390;BME280;34643;47.964;7.982;2023-03-31T05:47:26;95522.66;;;16.76;62.79
48390;BME280;34643;47.964;7.982;2023-03-31T05:52:26;95515.00;;;16.75;62.65
48390;BME280;34643;47.964;7.982;2023-03-31T05:57:27;95511.44;;;16.76;62.59
48390;BME280;34643;47.964;7.982;2023-03-31T06:02:27;95488.13;;;16.74;62.56
48390;BME280;34643;47.964;7.982;2023-03-31T06:07:27;95485.66;;;16.72;62.44
48390;BME280;34643;47.964;7.982;2023-03-31T06:12:27;95600.28;;;16.72;62.58
48390;BME280;34643;47.964;7.982;2023-03-31T06:17:28;95740.06;;;16.73;62.55
48390;BME280;34643;47.964;7.982;2023-03-31T06:22:28;95760.19;;;16.71;62.59
48390;BME280;34643;47.964;7.982;2023-03-31T06:27:28;95776.94;;;16.69;62.58
48390;BME280;34643;47.964;7.982;2023-03-31T06:32:29;95800.63;;;16.66;62.47
48390;BME280;34643;47.964;7.982;2023-03-31T06:37:29;95798.03;;;16.66;62.39
48390;BME280;34643;47.964;7.982;2023-03-31T06:42:30;95771.28;;;16.64;62.46
48390;BME280;34643;47.964;7.982;2023-03-31T06:47:30;95764.56;;;16.61;62.38
48390;BME280;34643;47.964;7.982;2023-03-31T06:52:30;95682.16;;;16.60;62.24
48390;BME280;34643;47.964;7.982;2023-03-31T06:57:31;95700.53;;;16.59;62.34
48390;BME280;34643;47.964;7.982;2023-03-31T07:02:33;95692.03;;;16.57;62.27
48390;BME280;34643;47.964;7.982;2023-03-31T07:07:33;95691.75;;;16.60;62.33
48390;BME280;34643;47.964;7.982;2023-03-31T07:12:33;95709.72;;;16.63;62.04
48390;BME280;34643;47.964;7.982;2023-03-31T07:17:34;95707.53;;;16.68;62.10
48390;BME280;34643;47.964;7.982;2023-03-31T07:22:36;95701.09;;;16.72;62.01
48390;BME280;34643;47.964;7.982;2023-03-31T07:27:36;95695.59;;;16.75;62.00
48390;BME280;34643;47.964;7.982;2023-03-31T07:32:37;95704.25;;;16.76;61.87
48390;BME280;34643;47.964;7.982;2023-03-31T07:37:43;95714.13;;;16.72;62.22
48390;BME280;34643;47.964;7.982;2023-03-31T07:42:44;95697.38;;;16.75;61.68
48390;BME280;34643;47.964;7.982;2023-03-31T07:47:46;95701.22;;;16.80;61.81
48390;BME280;34643;47.964;7.982;2023-03-31T07:52:47;95714.69;;;16.85;61.75
48390;BME280;34643;47.964;7.982;2023-03-31T07:57:47;95711.97;;;16.87;61.89
48390;BME280;34643;47.964;7.982;2023-03-31T08:02:48;95721.00;;;16.92;61.76
48390;BME280;34643;47.964;7.982;2023-03-31T08:07:48;95700.28;;;16.91;61.78
48390;BME280;34643;47.964;7.982;2023-03-31T08:12:49;95704.16;;;16.97;61.57
48390;BME280;34643;47.964;7.982;2023-03-31T08:17:50;95699.91;;;16.96;61.78
48390;BME280;34643;47.964;7.982;2023-03-31T08:22:50;95704.00;;;16.98;61.70
48390;BME280;34643;47.964;7.982;2023-03-31T08:27:51;95709.75;;;17.02;61.67
48390;BME280;34643;47.964;7.982;2023-03-31T08:32:51;95702.22;;;16.99;61.89
48390;BME280;34643;47.964;7.982;2023-03-31T08:37:51;95712.94;;;16.96;62.05
48390;BME280;34643;47.964;7.982;2023-03-31T08:42:52;95717.19;;;16.97;62.01
48390;BME280;34643;47.964;7.982;2023-03-31T08:53:24;95714.16;;;17.01;61.84
48390;BME280;34643;47.964;7.982;2023-03-31T08:58:41;95714.97;;;17.02;61.88
48390;BME280;34643;47.964;7.982;2023-03-31T09:03:45;95728.97;;;17.01;61.98
48390;BME280;34643;47.964;7.982;2023-03-31T09:08:50;95704.25;;;17.24;61.02
48390;BME280;34643;47.964;7.982;2023-03-31T09:19:30;95674.63;;;17.25;61.45
48390;BME280;34643;47.964;7.982;2023-03-31T09:24:44;95669.53;;;17.14;62.29
48390;BME280;34643;47.964;7.982;2023-03-31T09:29:57;95647.59;;;17.07;62.63
48390;BME280;34643;47.964;7.982;2023-03-31T09:35:01;95639.22;;;17.03;62.69
48390;BME280;34643;47.964;7.982;2023-03-31T09:40:15;95607.81;;;17.05;62.62
48390;BME280;34643;47.964;7.982;2023-03-31T09:45:16;95623.59;;;17.03;62.69
48390;BME280;34643;47.964;7.982;2023-03-31T09:50:17;95602.06;;;17.01;62.48
48390;BME280;34643;47.964;7.982;2023-03-31T09:55:25;95596.84;;;17.01;62.57
48390;BME280;34643;47.964;7.982;2023-03-31T10:00:27;95588.06;;;17.02;62.45
48390;BME280;34643;47.964;7.982;2023-03-31T10:10:31;95611.09;;;17.07;62.47
48390;BME280;34643;47.964;7.982;2023-03-31T10:15:32;95590.09;;;17.08;62.31
48390;BME280;34643;47.964;7.982;2023-03-31T10:20:36;95597.25;;;17.06;62.46
48390;BME280;34643;47.964;7.982;2023-03-31T10:25:37;95601.13;;;17.02;62.59
48390;BME280;34643;47.964;7.982;2023-03-31T10:30:37;95600.97;;;17.04;62.59
48390;BME280;34643;47.964;7.982;2023-03-31T10:35:39;95618.69;;;17.00;62.68
48390;BME280;34643;47.964;7.982;2023-03-31T10:40:40;95616.22;;;16.99;62.88
48390;BME280;34643;47.964;7.982;2023-03-31T10:50:43;95601.78;;;17.04;62.21
48390;BME280;34643;47.964;7.982;2023-03-31T11:11:12;95533.94;;;17.24;61.60
48390;BME280;34643;47.964;7.982;2023-03-31T11:16:39;95520.31;;;17.30;61.74
48390;BME280;34643;47.964;7.982;2023-03-31T11:21:43;95517.16;;;17.26;61.77
48390;BME280;34643;47.964;7.982;2023-03-31T11:26:52;95506.47;;;17.29;61.79
48390;BME280;34643;47.964;7.982;2023-03-31T11:42:21;95543.56;;;17.23;61.93
48390;BME280;34643;47.964;7.982;2023-03-31T11:47:25;95557.94;;;17.27;61.74
48390;BME280;34643;47.964;7.982;2023-03-31T11:52:34;95570.44;;;17.24;61.84
48390;BME280;34643;47.964;7.982;2023-03-31T11:57:41;95640.31;;;17.20;61.72
48390;BME280;34643;47.964;7.982;2023-03-31T12:02:52;95675.47;;;17.16;61.95
48390;BME280;34643;47.964;7.982;2023-03-31T12:07:57;95608.63;;;17.15;61.83
48390;BME280;34643;47.964;7.982;2023-03-31T12:18:23;95542.41;;;17.63;61.36
48390;BME280;34643;47.964;7.982;2023-03-31T12:23:26;95557.06;;;18.02;61.13
48390;BME280;34643;47.964;7.982;2023-03-31T12:28:28;95530.03;;;18.11;60.31
48390;BME280;34643;47.964;7.982;2023-03-31T12:33:30;95500.38;;;18.12;60.78
48390;BME280;34643;47.964;7.982;2023-03-31T12:39:15;95473.72;;;18.09;61.39
48390;BME280;34643;47.964;7.982;2023-03-31T12:49:02;95432.75;;;18.53;60.85
48390;BME280;34643;47.964;7.982;2023-03-31T12:59:16;95414.00;;;17.88;61.88
48390;BME280;34643;47.964;7.982;2023-03-31T13:04:20;95429.38;;;17.81;61.49
48390;BME280;34643;47.964;7.982;2023-03-31T13:14:26;95449.91;;;17.76;61.37
48390;BME280;34643;47.964;7.982;2023-03-31T13:19:33;95438.03;;;17.81;61.11
48390;BME280;34643;47.964;7.982;2023-03-31T13:24:33;95403.59;;;17.96;60.75
48390;BME280;34643;47.964;7.982;2023-03-31T13:34:38;95425.75;;;17.92;60.33
48390;BME280;34643;47.964;7.982;2023-03-31T13:39:50;95438.53;;;17.95;60.97
48390;BME280;34643;47.964;7.982;2023-03-31T13:55:55;95596.72;;;17.78;61.57
48390;BME280;34643;47.964;7.982;2023-03-31T14:01:08;95593.03;;;17.71;61.57
48390;BME280;34643;47.964;7.982;2023-03-31T14:11:24;95505.31;;;17.70;61.34
48390;BME280;34643;47.964;7.982;2023-03-31T14:16:26;95502.00;;;17.67;61.05
48390;BME280;34643;47.964;7.982;2023-03-31T14:21:28;95523.72;;;17.68;60.93
48390;BME280;34643;47.964;7.982;2023-03-31T14:37:13;95556.66;;;17.69;60.98
48390;BME280;34643;47.964;7.982;2023-03-31T14:42:17;95518.63;;;17.66;60.84
48390;BME280;34643;47.964;7.982;2023-03-31T14:47:19;95504.78;;;17.66;60.86
48390;BME280;34643;47.964;7.982;2023-03-31T14:52:20;95508.19;;;17.66;60.54
48390;BME280;34643;47.964;7.982;2023-03-31T14:57:25;95498.72;;;17.65;60.79
48390;BME280;34643;47.964;7.982;2023-03-31T15:02:34;95527.41;;;17.65;60.38
48390;BME280;34643;47.964;7.982;2023-03-31T15:07:35;95517.81;;;17.66;60.59
48390;BME280;34643;47.964;7.982;2023-03-31T15:12:37;95513.56;;;17.65;60.52
48390;BME280;34643;47.964;7.982;2023-03-31T15:17:38;95533.63;;;17.64;60.45
48390;BME280;34643;47.964;7.982;2023-03-31T15:22:39;95513.84;;;17.62;60.39
48390;BME280;34643;47.964;7.982;2023-03-31T15:27:42;95525.94;;;17.63;60.44
48390;BME280;34643;47.964;7.982;2023-03-31T15:32:45;95506.84;;;17.62;60.61
48390;BME280;34643;47.964;7.982;2023-03-31T15:37:46;95494.75;;;17.61;60.36
48390;BME280;34643;47.964;7.982;2023-03-31T15:42:47;95478.44;;;17.59;60.47
48390;BME280;34643;47.964;7.982;2023-03-31T15:47:48;95488.06;;;17.59;60.45
48390;BME280;34643;47.964;7.982;2023-03-31T15:52:49;95482.16;;;17.57;60.36
48390;BME280;34643;47.964;7.982;2023-03-31T15:57:52;95471.88;;;17.55;60.64
48390;BME280;34643;47.964;7.982;2023-03-31T16:02:53;95469.41;;;17.54;60.30
48390;BME280;34643;47.964;7.982;2023-03-31T16:07:53;95465.16;;;17.53;60.45
48390;BME280;34643;47.964;7.982;2023-03-31T16:12:58;95472.16;;;17.52;60.39
48390;BME280;34643;47.964;7.982;2023-03-31T16:18:10;95470.50;;;17.51;60.48
48390;BME280;34643;47.964;7.982;2023-03-31T16:23:12;95477.66;;;17.49;60.40
48390;BME280;34643;47.964;7.982;2023-03-31T16:28:15;95470.81;;;17.48;60.39
48390;BME280;34643;47.964;7.982;2023-03-31T16:33:17;95456.81;;;17.49;60.29
48390;BME280;34643;47.964;7.982;2023-03-31T16:38:18;95474.09;;;17.50;60.23
48390;BME280;34643;47.964;7.982;2023-03-31T16:43:21;95496.88;;;17.48;60.19
48390;BME280;34643;47.964;7.982;2023-03-31T16:48:23;95480.56;;;17.46;60.21
48390;BME280;34643;47.964;7.982;2023-03-31T16:53:24;95482.50;;;17.44;60.31
48390;BME280;34643;47.964;7.982;2023-03-31T16:58:25;95489.50;;;17.43;60.29
48390;BME280;34643;47.964;7.982;2023-03-31T17:03:27;95501.56;;;17.44;60.04
48390;BME280;34643;47.964;7.982;2023-03-31T17:08:28;95510.25;;;17.45;59.94
48390;BME280;34643;47.964;7.982;2023-03-31T17:13:29;95521.34;;;17.47;59.98
48390;BME280;34643;47.964;7.982;2023-03-31T17:18:29;95510.09;;;17.46;59.84
48390;BME280;34643;47.964;7.982;2023-03-31T17:23:30;95512.53;;;17.48;59.82
48390;BME280;34643;47.964;7.982;2023-03-31T17:28:30;95513.25;;;17.50;59.93
48390;BME280;34643;47.964;7.982;2023-03-31T17:33:31;95505.41;;;17.50;60.00
48390;BME280;34643;47.964;7.982;2023-03-31T17:38:32;95501.81;;;17.51;60.14
48390;BME280;34643;47.964;7.982;2023-03-31T17:43:33;95491.38;;;17.51;59.78
48390;BME280;34643;47.964;7.982;2023-03-31T17:48:34;95482.31;;;17.55;59.85
48390;BME280;34643;47.964;7.982;2023-03-31T17:53:35;95471.56;;;17.58;60.03
48390;BME280;34643;47.964;7.982;2023-03-31T17:58:37;95489.31;;;17.55;59.88
48390;BME280;34643;47.964;7.982;2023-03-31T18:03:37;95485.88;;;17.54;60.34
48390;BME280;34643;47.964;7.982;2023-03-31T18:08:38;95497.97;;;17.55;60.10
48390;BME280;34643;47.964;7.982;2023-03-31T18:13:39;95484.75;;;17.57;60.19
48390;BME280;34643;47.964;7.982;2023-03-31T18:18:39;95484.75;;;17.57;59.96
48390;BME280;34643;47.964;7.982;2023-03-31T18:23:40;95484.75;;;17.57;59.95
48390;BME280;34643;47.964;7.982;2023-03-31T18:28:40;95475.16;;;17.57;59.89
48390;BME280;34643;47.964;7.982;2023-03-31T18:33:41;95484.63;;;17.58;60.01
48390;BME280;34643;47.964;7.982;2023-03-31T18:38:41;95487.22;;;17.58;60.00
48390;BME280;34643;47.964;7.982;2023-03-31T18:43:41;95475.97;;;17.58;59.81
48390;BME280;34643;47.964;7.982;2023-03-31T18:48:42;95494.09;;;17.59;60.02
48390;BME280;34643;47.964;7.982;2023-03-31T18:53:42;95493.94;;;17.61;59.98
48390;BME280;34643;47.964;7.982;2023-03-31T18:58:44;95497.38;;;17.61;59.87
48390;BME280;34643;47.964;7.982;2023-03-31T19:03:44;95498.19;;;17.62;59.86
48390;BME280;34643;47.964;7.982;2023-03-31T19:08:45;95508.63;;;17.62;59.91
48390;BME280;34643;47.964;7.982;2023-03-31T19:13:45;95529.34;;;17.63;59.84
48390;BME280;34643;47.964;7.982;2023-03-31T19:18:46;95537.19;;;17.63;59.79
48390;BME280;34643;47.964;7.982;2023-03-31T19:23:46;95543.22;;;17.64;59.91
48390;BME280;34643;47.964;7.982;2023-03-31T19:28:46;95533.63;;;17.64;59.79
48390;BME280;34643;47.964;7.982;2023-03-31T19:33:47;95548.28;;;17.65;59.76
48390;BME280;34643;47.964;7.982;2023-03-31T19:38:47;95575.06;;;17.67;59.88
48390;BME280;34643;47.964;7.982;2023-03-31T19:43:48;95561.06;;;17.68;59.80
48390;BME280;34643;47.964;7.982;2023-03-31T19:48:49;95569.69;;;17.69;59.63
48390;BME280;34643;47.964;7.982;2023-03-31T19:53:50;95561.88;;;17.69;59.71
48390;BME280;34643;47.964;7.982;2023-03-31T19:58:51;95581.78;;;17.70;59.77
48390;BME280;34643;47.964;7.982;2023-03-31T20:03:52;95581.78;;;17.70;59.46
48390;BME280;34643;47.964;7.982;2023-03-31T20:08:55;95580.81;;;17.71;59.73
48390;BME280;34643;47.964;7.982;2023-03-31T20:13:55;95585.22;;;17.71;59.61
48390;BME280;34643;47.964;7.982;2023-03-31T20:18:57;95590.97;;;17.74;59.79
48390;BME280;34643;47.964;7.982;2023-03-31T20:23:57;95586.28;;;17.78;59.63
48390;BME280;34643;47.964;7.982;2023-03-31T20:28:58;95588.06;;;17.77;59.72
48390;BME280;34643;47.964;7.982;2023-03-31T20:34:00;95603.72;;;17.77;59.60
48390;BME280;34643;47.964;7.982;2023-03-31T20:39:01;95595.75;;;17.79;59.33
48390;BME280;34643;47.964;7.982;2023-03-31T20:44:04;95596.72;;;17.78;59.80
48390;BME280;34643;47.964;7.982;2023-03-31T20:49:04;95610.44;;;17.80;59.65
48390;BME280;34643;47.964;7.982;2023-03-31T20:54:06;95620.88;;;17.80;59.50
48390;BME280;34643;47.964;7.982;2023-03-31T20:59:08;95627.75;;;17.81;59.63
48390;BME280;34643;47.964;7.982;2023-03-31T21:04:10;95619.78;;;17.82;59.33
48390;BME280;34643;47.964;7.982;2023-03-31T21:09:11;95610.00;;;17.84;59.63
48390;BME280;34643;47.964;7.982;2023-03-31T21:14:12;95610.97;;;17.83;59.48
48390;BME280;34643;47.964;7.982;2023-03-31T21:19:13;95605.59;;;17.85;59.65
48390;BME280;34643;47.964;7.982;2023-03-31T21:24:13;95610.81;;;17.85;59.51
48390;BME280;34643;47.964;7.982;2023-03-31T21:29:13;95622.13;;;17.85;59.49
48390;BME280;34643;47.964;7.982;2023-03-31T21:34:14;95625.56;;;17.86;59.57
48390;BME280;34643;47.964;7.982;2023-03-31T21:39:14;95608.91;;;17.87;59.48
48390;BME280;34643;47.964;7.982;2023-03-31T21:44:15;95606.16;;;17.89;59.39
48390;BME280;34643;47.964;7.982;2023-03-31T21:49:15;95612.22;;;17.89;59.46
48390;BME280;34643;47.964;7.982;2023-03-31T21:54:15;95609.31;;;17.92;59.20
48390;BME280;34643;47.964;7.982;2023-03-31T21:59:16;95630.19;;;17.92;59.35
48390;BME280;34643;47.964;7.982;2023-03-31T22:04:16;95622.22;;;17.94;59.25
48390;BME280;34643;47.964;7.982;2023-03-31T22:09:16;95627.97;;;17.97;59.46
48390;BME280;34643;47.964;7.982;2023-03-31T22:14:17;95645.16;;;18.00;59.37
48390;BME280;34643;47.964;7.982;2023-03-31T22:19:17;95645.81;;;18.02;59.21
48390;BME280;34643;47.964;7.982;2023-03-31T22:24:18;95658.72;;;18.03;59.32
48390;BME280;34643;47.964;7.982;2023-03-31T22:29:19;95650.91;;;18.03;59.31
48390;BME280;34643;47.964;7.982;2023-03-31T22:34:19;95638.50;;;18.05;59.40
48390;BME280;34643;47.964;7.982;2023-03-31T22:39:20;95619.56;;;18.03;59.26
48390;BME280;34643;47.964;7.982;2023-03-31T22:44:20;95619.72;;;18.02;59.59
48390;BME280;34643;47.964;7.982;2023-03-31T22:49:20;95609.19;;;18.12;59.54
48390;BME280;34643;47.964;7.982;2023-03-31T22:54:21;95626.22;;;18.16;59.75
48390;BME280;34643;47.964;7.982;2023-03-31T22:59:21;95632.94;;;18.18;59.80
48390;BME280;34643;47.964;7.982;2023-03-31T23:04:21;95649.28;;;18.20;59.98
48390;BME280;34643;47.964;7.982;2023-03-31T23:09:22;95632.50;;;18.23;60.07
48390;BME280;34643;47.964;7.982;2023-03-31T23:14:22;95641.97;;;18.24;60.27
48390;BME280;34643;47.964;7.982;2023-03-31T23:19:23;95632.50;;;18.23;60.18
48390;BME280;34643;47.964;7.982;2023-03-31T23:24:23;95632.06;;;18.28;60.39
48390;BME280;34643;47.964;7.982;2023-03-31T23:29:24;95637.66;;;18.33;60.66
48390;BME280;34643;47.964;7.982;2023-03-31T23:34:26;95643.41;;;18.36;60.70
48390;BME280;34643;47.964;7.982;2023-03-31T23:39:26;95660.44;;;18.40;60.88
48390;BME280;34643;47.964;7.982;2023-03-31T23:44:26;95655.22;;;18.40;61.45
48390;BME280;34643;47.964;7.982;2023-03-31T23:49:27;95666.19;;;18.44;61.20
48390;BME280;34643;47.964;7.982;2023-03-31T23:54:27;95668.63;;;18.46;61.42
48390;BME280;34643;47.964;7.982;2023-03-31T23:59:27;95665.06;;;18.47;61.27
